createdAt,value
2019-04-27T00:00:48.631Z,17.90
2019-04-27T00:01:48.593Z,18.20
2019-04-27T00:02:47.616Z,18.40
2019-04-27T00:03:47.601Z,18.20
2019-04-27T00:04:48.713Z,18.70
2019-04-27T00:05:47.578Z,17.50
2019-04-27T00:06:47.566Z,18.70
2019-04-27T00:07:51.174Z,17.30
2019-04-27T00:08:47.544Z,16.80
2019-04-27T00:09:51.295Z,17.50
2019-04-27T00:10:47.530Z,16.80
2019-04-27T00:11:47.506Z,16.70
2019-04-27T00:12:47.494Z,16.80
2019-04-27T00:13:47.484Z,17.40
2019-04-27T00:14:48.270Z,16.00
2019-04-27T00:15:47.478Z,16.70
2019-04-27T00:16:50.883Z,16.00
2019-04-27T00:17:49.545Z,15.90
2019-04-27T00:18:49.821Z,16.60
2019-04-27T00:19:48.420Z,16.20
2019-04-27T00:20:47.431Z,16.90
2019-04-27T00:21:47.422Z,17.30
2019-04-27T00:22:47.421Z,17.80
2019-04-27T00:23:47.380Z,17.80
2019-04-27T00:24:47.371Z,18.40
2019-04-27T00:25:47.372Z,17.10
2019-04-27T00:26:47.360Z,18.10
2019-04-27T00:27:47.332Z,17.00
2019-04-27T00:28:47.323Z,16.20
2019-04-27T00:29:47.322Z,18.20
2019-04-27T00:30:47.296Z,18.10
2019-04-27T00:31:47.307Z,17.80
2019-04-27T00:32:47.279Z,16.40
2019-04-27T00:33:47.277Z,16.20
2019-04-27T00:34:47.259Z,16.20
2019-04-27T00:35:47.267Z,16.40
2019-04-27T00:36:47.244Z,15.40
2019-04-27T00:37:47.230Z,14.90
2019-04-27T00:38:47.215Z,15.50
2019-04-27T00:39:47.197Z,15.80
2019-04-27T00:40:47.233Z,14.40
2019-04-27T00:41:47.183Z,15.20
2019-04-27T00:42:47.179Z,14.60
2019-04-27T00:43:47.161Z,14.00
2019-04-27T00:44:47.159Z,13.90
2019-04-27T00:45:47.135Z,13.50
2019-04-27T00:46:47.147Z,13.60
2019-04-27T00:47:56.309Z,14.10
2019-04-27T00:48:48.107Z,13.70
2019-04-27T00:49:47.108Z,13.30
2019-04-27T00:50:47.087Z,13.90
2019-04-27T00:51:47.088Z,13.70
2019-04-27T00:52:47.060Z,12.70
2019-04-27T00:53:47.059Z,14.40
2019-04-27T00:54:47.041Z,13.80
2019-04-27T00:55:47.046Z,14.20
2019-04-27T00:56:47.031Z,13.90
2019-04-27T00:57:47.010Z,13.90
2019-04-27T00:58:46.999Z,12.90
2019-04-27T00:59:46.982Z,13.30
2019-04-27T01:00:46.980Z,13.00
2019-04-27T01:01:46.976Z,13.30
2019-04-27T01:02:46.980Z,13.30
2019-04-27T01:03:46.954Z,13.00
2019-04-27T01:04:46.926Z,13.40
2019-04-27T01:05:46.920Z,13.30
2019-04-27T01:06:46.919Z,13.40
2019-04-27T01:07:46.901Z,12.90
2019-04-27T01:08:46.900Z,12.80
2019-04-27T01:09:46.886Z,12.90
2019-04-27T01:10:46.866Z,13.60
2019-04-27T01:11:46.857Z,13.50
2019-04-27T01:12:46.853Z,13.80
2019-04-27T01:13:46.858Z,12.90
2019-04-27T01:14:46.836Z,12.60
2019-04-27T01:15:46.813Z,13.10
2019-04-27T01:16:46.816Z,13.20
2019-04-27T01:17:46.808Z,13.40
2019-04-27T01:18:46.801Z,13.10
2019-04-27T01:19:46.799Z,12.70
2019-04-27T01:20:46.764Z,12.50
2019-04-27T01:21:46.756Z,12.10
2019-04-27T01:22:46.732Z,12.90
2019-04-27T01:23:48.725Z,13.10
2019-04-27T01:24:46.734Z,12.90
2019-04-27T01:25:46.707Z,11.30
2019-04-27T01:26:46.697Z,12.70
2019-04-27T01:27:46.699Z,12.80
2019-04-27T01:28:46.669Z,12.00
2019-04-27T01:29:46.670Z,12.00
2019-04-27T01:30:46.651Z,12.40
2019-04-27T01:31:46.632Z,12.20
2019-04-27T01:32:46.633Z,12.20
2019-04-27T01:33:46.679Z,12.80
2019-04-27T01:34:46.614Z,11.40
2019-04-27T01:35:46.615Z,11.90
2019-04-27T01:36:46.617Z,12.30
2019-04-27T01:37:46.577Z,12.20
2019-04-27T01:38:46.565Z,11.60
2019-04-27T01:39:46.585Z,12.40
2019-04-27T01:40:46.578Z,11.90
2019-04-27T01:41:46.529Z,12.50
2019-04-27T01:42:46.522Z,12.00
2019-04-27T01:43:46.499Z,12.30
2019-04-27T01:44:46.520Z,11.80
2019-04-27T01:45:46.505Z,11.90
2019-04-27T01:46:46.508Z,11.50
2019-04-27T01:47:46.503Z,12.00
2019-04-27T01:48:46.452Z,11.60
2019-04-27T01:49:46.480Z,11.70
2019-04-27T01:50:46.430Z,11.80
2019-04-27T01:51:46.430Z,11.20
2019-04-27T01:52:46.421Z,11.70
2019-04-27T01:53:46.401Z,12.30
2019-04-27T01:54:46.444Z,11.90
2019-04-27T01:55:46.417Z,11.50
2019-04-27T01:56:46.365Z,11.60
2019-04-27T01:57:46.401Z,12.10
2019-04-27T01:58:46.364Z,12.90
2019-04-27T01:59:46.329Z,12.50
2019-04-27T02:00:46.345Z,11.90
2019-04-27T02:01:46.337Z,12.20
2019-04-27T02:02:46.303Z,11.60
2019-04-27T02:03:46.304Z,11.30
2019-04-27T02:04:46.308Z,11.50
2019-04-27T02:05:46.276Z,11.20
2019-04-27T02:06:46.249Z,11.60
2019-04-27T02:07:46.253Z,11.20
2019-04-27T02:08:46.237Z,11.00
2019-04-27T02:09:46.241Z,11.50
2019-04-27T02:10:46.244Z,11.20
2019-04-27T02:11:46.217Z,11.70
2019-04-27T02:12:46.184Z,12.00
2019-04-27T02:13:46.171Z,12.20
2019-04-27T02:14:46.185Z,12.70
2019-04-27T02:15:46.168Z,12.00
2019-04-27T02:16:46.166Z,11.40
2019-04-27T02:17:46.168Z,12.40
2019-04-27T02:18:46.135Z,11.50
2019-04-27T02:19:46.112Z,11.70
2019-04-27T02:20:46.125Z,11.50
2019-04-27T02:21:46.091Z,11.10
2019-04-27T02:22:46.100Z,12.30
2019-04-27T02:23:46.087Z,11.90
2019-04-27T02:24:46.080Z,11.80
2019-04-27T02:25:46.072Z,11.40
2019-04-27T02:26:46.059Z,11.00
2019-04-27T02:27:46.028Z,10.20
2019-04-27T02:28:46.038Z,10.30
2019-04-27T02:29:46.015Z,10.80
2019-04-27T02:30:46.005Z,10.90
2019-04-27T02:31:46.063Z,11.00
2019-04-27T02:32:45.990Z,10.70
2019-04-27T02:33:45.968Z,10.90
2019-04-27T02:34:45.962Z,10.70
2019-04-27T02:35:45.937Z,10.00
2019-04-27T02:36:45.949Z,10.80
2019-04-27T02:37:45.958Z,10.60
2019-04-27T02:38:45.944Z,10.70
2019-04-27T02:39:45.900Z,10.40
2019-04-27T02:40:45.910Z,10.90
2019-04-27T02:41:45.870Z,10.30
2019-04-27T02:42:45.885Z,11.00
2019-04-27T02:43:45.876Z,10.60
2019-04-27T02:44:45.840Z,10.60
2019-04-27T02:45:45.838Z,10.50
2019-04-27T02:46:45.818Z,10.70
2019-04-27T02:47:45.841Z,10.40
2019-04-27T02:48:58.572Z,10.90
2019-04-27T02:49:46.790Z,10.70
2019-04-27T02:50:45.793Z,11.00
2019-04-27T02:51:45.785Z,11.00
2019-04-27T02:52:45.789Z,10.40
2019-04-27T02:53:45.781Z,10.70
2019-04-27T02:54:45.742Z,11.00
2019-04-27T02:55:45.727Z,10.90
2019-04-27T02:56:45.723Z,11.00
2019-04-27T02:57:45.734Z,11.00
2019-04-27T02:58:45.735Z,12.20
2019-04-27T02:59:45.679Z,11.80
2019-04-27T03:00:45.678Z,11.70
2019-04-27T03:01:46.755Z,12.30
2019-04-27T03:02:45.662Z,12.50
2019-04-27T03:03:45.642Z,11.40
2019-04-27T03:04:45.652Z,11.20
2019-04-27T03:05:45.626Z,12.20
2019-04-27T03:06:45.644Z,11.30
2019-04-27T03:07:45.630Z,10.90
2019-04-27T03:08:49.455Z,11.90
2019-04-27T03:09:46.581Z,11.70
2019-04-27T03:10:45.569Z,11.70
2019-04-27T03:11:45.569Z,11.60
2019-04-27T03:12:45.562Z,11.00
2019-04-27T03:13:45.588Z,10.90
2019-04-27T03:14:45.532Z,11.10
2019-04-27T03:15:45.518Z,10.50
2019-04-27T03:16:45.502Z,10.90
2019-04-27T03:17:45.497Z,10.90
2019-04-27T03:18:45.509Z,10.70
2019-04-27T03:19:45.481Z,10.60
2019-04-27T03:20:45.467Z,11.00
2019-04-27T03:21:45.449Z,10.10
2019-04-27T03:22:45.434Z,10.30
2019-04-27T03:23:45.436Z,10.50
2019-04-27T03:24:45.445Z,10.40
2019-04-27T03:25:45.397Z,10.00
2019-04-27T03:26:45.410Z,10.40
2019-04-27T03:27:45.383Z,9.20
2019-04-27T03:28:45.375Z,10.20
2019-04-27T03:29:45.380Z,9.30
2019-04-27T03:30:45.345Z,9.70
2019-04-27T03:31:47.146Z,10.00
2019-04-27T03:32:46.338Z,9.20
2019-04-27T03:33:45.319Z,9.30
2019-04-27T03:34:45.299Z,8.90
2019-04-27T03:35:45.310Z,8.50
2019-04-27T03:36:45.277Z,9.30
2019-04-27T03:37:45.268Z,9.00
2019-04-27T03:38:45.260Z,9.60
2019-04-27T03:39:45.267Z,8.80
2019-04-27T03:40:45.270Z,9.00
2019-04-27T03:41:45.262Z,8.90
2019-04-27T03:42:45.220Z,8.50
2019-04-27T03:43:45.219Z,9.30
2019-04-27T03:44:45.211Z,9.60
2019-04-27T03:45:45.200Z,9.00
2019-04-27T03:46:45.177Z,8.70
2019-04-27T03:47:45.428Z,8.30
2019-04-27T03:48:45.138Z,8.60
2019-04-27T03:49:45.132Z,8.90
2019-04-27T03:50:45.148Z,8.30
2019-04-27T03:51:45.116Z,8.50
2019-04-27T03:52:45.103Z,7.70
2019-04-27T03:53:45.098Z,8.10
2019-04-27T03:54:45.080Z,8.00
2019-04-27T03:55:45.094Z,8.40
2019-04-27T03:56:45.069Z,8.00
2019-04-27T03:57:45.067Z,8.30
2019-04-27T03:58:45.034Z,7.80
2019-04-27T03:59:45.020Z,7.90
2019-04-27T04:00:45.012Z,8.20
2019-04-27T04:01:45.021Z,7.90
2019-04-27T04:02:44.998Z,8.30
2019-04-27T04:03:44.996Z,8.30
2019-04-27T04:04:44.964Z,7.90
2019-04-27T04:05:44.958Z,7.70
2019-04-27T04:06:44.985Z,8.20
2019-04-27T04:07:44.932Z,7.10
2019-04-27T04:08:44.927Z,6.90
2019-04-27T04:09:44.970Z,7.50
2019-04-27T04:10:44.905Z,7.00
2019-04-27T04:11:44.919Z,7.50
2019-04-27T04:12:44.881Z,7.60
2019-04-27T04:13:44.875Z,6.90
2019-04-27T04:14:44.877Z,7.20
2019-04-27T04:15:44.867Z,7.00
2019-04-27T04:16:44.842Z,6.90
2019-04-27T04:17:44.849Z,7.00
2019-04-27T04:18:44.815Z,6.90
2019-04-27T04:19:54.357Z,7.10
2019-04-27T04:20:45.787Z,7.10
2019-04-27T04:21:44.813Z,6.90
2019-04-27T04:22:44.787Z,6.40
2019-04-27T04:23:44.755Z,6.50
2019-04-27T04:24:44.759Z,6.40
2019-04-27T04:25:44.739Z,6.40
2019-04-27T04:26:44.722Z,6.10
2019-04-27T04:27:44.727Z,5.90
2019-04-27T04:28:44.702Z,5.90
2019-04-27T04:29:44.692Z,5.70
2019-04-27T04:30:44.689Z,5.70
2019-04-27T04:31:44.701Z,5.80
2019-04-27T04:32:44.708Z,5.60
2019-04-27T04:33:44.651Z,5.60
2019-04-27T04:34:44.638Z,5.80
2019-04-27T04:35:44.620Z,6.30
2019-04-27T04:36:44.626Z,5.80
2019-04-27T04:37:44.624Z,5.80
2019-04-27T04:38:44.606Z,5.10
2019-04-27T04:39:44.585Z,5.30
2019-04-27T04:40:44.575Z,5.00
2019-04-27T04:41:44.568Z,5.00
2019-04-27T04:42:44.553Z,5.30
2019-04-27T04:43:44.563Z,5.60
2019-04-27T04:44:44.528Z,5.40
2019-04-27T04:45:44.512Z,5.30
2019-04-27T04:46:44.522Z,5.10
2019-04-27T04:47:44.503Z,4.70
2019-04-27T04:48:44.506Z,5.30
2019-04-27T04:49:44.470Z,5.60
2019-04-27T04:50:44.462Z,5.00
2019-04-27T04:51:44.448Z,5.30
2019-04-27T04:52:44.443Z,5.40
2019-04-27T04:53:44.467Z,5.40
2019-04-27T04:54:44.430Z,5.40
2019-04-27T04:55:44.406Z,5.40
2019-04-27T04:56:44.393Z,5.00
2019-04-27T04:57:44.380Z,5.40
2019-04-27T04:58:44.414Z,5.00
2019-04-27T04:59:45.111Z,4.90
2019-04-27T05:00:55.515Z,5.20
2019-04-27T05:01:44.484Z,5.50
2019-04-27T05:02:44.440Z,5.10
2019-04-27T05:03:44.334Z,5.30
2019-04-27T05:04:44.345Z,4.90
2019-04-27T05:05:44.309Z,5.30
2019-04-27T05:06:45.019Z,5.30
2019-04-27T05:07:44.365Z,5.20
2019-04-27T05:08:44.284Z,5.60
2019-04-27T05:09:44.286Z,5.00
2019-04-27T05:10:44.270Z,5.40
2019-04-27T05:11:44.233Z,5.50
2019-04-27T05:12:44.216Z,4.90
2019-04-27T05:13:44.255Z,5.50
2019-04-27T05:14:44.207Z,5.50
2019-04-27T05:15:44.212Z,5.00
2019-04-27T05:16:44.197Z,5.20
2019-04-27T05:17:44.163Z,5.20
2019-04-27T05:18:44.157Z,5.10
2019-04-27T05:19:44.158Z,5.30
2019-04-27T05:20:44.159Z,4.70
2019-04-27T05:21:44.134Z,4.60
2019-04-27T05:22:44.110Z,4.60
2019-04-27T05:23:44.107Z,4.60
2019-04-27T05:24:44.120Z,4.60
2019-04-27T05:25:44.098Z,4.70
2019-04-27T05:26:44.067Z,4.70
2019-04-27T05:27:44.058Z,4.80
2019-04-27T05:28:44.071Z,4.50
2019-04-27T05:29:44.044Z,5.00
2019-04-27T05:30:44.054Z,4.60
2019-04-27T05:31:44.018Z,4.20
2019-04-27T05:32:44.034Z,4.50
2019-04-27T05:33:44.036Z,4.60
2019-04-27T05:34:43.978Z,4.50
2019-04-27T05:35:43.974Z,4.60
2019-04-27T05:36:48.970Z,4.80
2019-04-27T05:37:44.991Z,4.00
2019-04-27T05:38:45.909Z,4.70
2019-04-27T05:39:43.967Z,3.90
2019-04-27T05:40:43.922Z,4.10
2019-04-27T05:41:43.916Z,4.10
2019-04-27T05:42:43.888Z,3.90
2019-04-27T05:43:43.887Z,4.10
2019-04-27T05:44:45.587Z,4.10
2019-04-27T05:45:43.866Z,4.00
2019-04-27T05:46:43.868Z,3.90
2019-04-27T05:47:48.382Z,3.80
2019-04-27T05:48:44.834Z,4.00
2019-04-27T05:49:44.629Z,3.50
2019-04-27T05:50:45.993Z,3.60
2019-04-27T05:51:43.812Z,3.80
2019-04-27T05:52:43.788Z,4.20
2019-04-27T05:53:43.778Z,3.60
2019-04-27T05:54:43.762Z,3.70
2019-04-27T05:55:43.755Z,3.50
2019-04-27T05:56:43.760Z,4.00
2019-04-27T05:57:43.731Z,3.30
2019-04-27T05:58:43.728Z,3.50
2019-04-27T05:59:43.724Z,3.50
2019-04-27T06:00:43.695Z,3.80
2019-04-27T06:01:43.701Z,3.70
2019-04-27T06:02:43.683Z,3.30
2019-04-27T06:03:43.673Z,3.80
2019-04-27T06:04:43.647Z,3.60
2019-04-27T06:05:43.653Z,3.50
2019-04-27T06:06:43.644Z,3.80
2019-04-27T06:07:43.686Z,3.40
2019-04-27T06:08:43.631Z,3.30
2019-04-27T06:09:43.599Z,3.60
2019-04-27T06:10:43.579Z,2.80
2019-04-27T06:11:43.572Z,3.30
2019-04-27T06:12:43.580Z,3.10
2019-04-27T06:13:43.575Z,2.80
2019-04-27T06:14:43.546Z,2.90
2019-04-27T06:15:43.534Z,3.20
2019-04-27T06:16:43.528Z,3.10
2019-04-27T06:17:43.517Z,3.10
2019-04-27T06:18:43.499Z,3.00
2019-04-27T06:19:43.950Z,3.00
2019-04-27T06:20:53.505Z,3.00
2019-04-27T06:21:44.464Z,3.00
2019-04-27T06:22:43.453Z,3.00
2019-04-27T06:23:43.489Z,3.00
2019-04-27T06:24:43.432Z,3.20
2019-04-27T06:25:43.470Z,3.00
2019-04-27T06:26:43.412Z,2.50
2019-04-27T06:27:43.430Z,3.20
2019-04-27T06:28:43.406Z,2.90
2019-04-27T06:29:43.382Z,3.00
2019-04-27T06:30:43.453Z,2.80
2019-04-27T06:31:43.405Z,2.90
2019-04-27T06:32:43.360Z,3.10
2019-04-27T06:33:43.375Z,2.70
2019-04-27T06:34:43.315Z,2.80
2019-04-27T06:35:43.308Z,3.00
2019-04-27T06:36:43.300Z,2.90
2019-04-27T06:37:43.300Z,2.80
2019-04-27T06:38:43.308Z,2.70
2019-04-27T06:39:43.266Z,3.10
2019-04-27T06:40:43.280Z,2.60
2019-04-27T06:41:43.246Z,2.60
2019-04-27T06:42:43.235Z,2.70
2019-04-27T06:43:43.246Z,2.70
2019-04-27T06:44:43.224Z,2.90
2019-04-27T06:45:43.218Z,2.90
2019-04-27T06:46:43.198Z,3.00
2019-04-27T06:47:43.184Z,2.70
2019-04-27T06:48:43.166Z,2.70
2019-04-27T06:49:43.228Z,2.80
2019-04-27T06:50:43.156Z,3.00
2019-04-27T06:51:43.133Z,2.50
2019-04-27T06:52:43.144Z,2.30
2019-04-27T06:53:43.126Z,2.50
2019-04-27T06:54:43.109Z,2.80
2019-04-27T06:55:43.112Z,2.80
2019-04-27T06:56:43.133Z,2.50
2019-04-27T06:57:43.079Z,2.80
2019-04-27T06:58:43.065Z,2.70
2019-04-27T06:59:43.074Z,2.80
2019-04-27T07:00:43.037Z,2.80
2019-04-27T07:01:43.064Z,2.40
2019-04-27T07:02:43.025Z,2.50
2019-04-27T07:03:43.047Z,2.90
2019-04-27T07:04:42.996Z,3.10
2019-04-27T07:05:43.012Z,2.80
2019-04-27T07:06:53.207Z,2.90
2019-04-27T07:07:44.074Z,2.90
2019-04-27T07:08:42.981Z,2.80
2019-04-27T07:09:42.957Z,3.00
2019-04-27T07:10:42.954Z,3.10
2019-04-27T07:11:42.945Z,3.40
2019-04-27T07:12:42.916Z,3.10
2019-04-27T07:13:42.900Z,3.40
2019-04-27T07:14:52.282Z,3.30
2019-04-27T07:15:43.874Z,3.60
2019-04-27T07:16:42.897Z,3.10
2019-04-27T07:17:42.856Z,3.30
2019-04-27T07:18:42.848Z,3.80
2019-04-27T07:19:42.889Z,6.10
2019-04-27T07:20:42.841Z,3.30
2019-04-27T07:21:43.752Z,3.40
2019-04-27T07:22:42.794Z,3.80
2019-04-27T07:23:42.797Z,4.30
2019-04-27T07:24:42.790Z,3.10
2019-04-27T07:25:42.782Z,3.60
2019-04-27T07:26:42.750Z,9.70
2019-04-27T07:27:43.092Z,3.70
2019-04-27T07:28:42.745Z,3.60
2019-04-27T07:29:44.692Z,4.50
2019-04-27T07:30:42.715Z,4.20
2019-04-27T07:31:42.710Z,3.40
2019-04-27T07:32:42.706Z,3.80
2019-04-27T07:33:42.684Z,3.90
2019-04-27T07:34:42.697Z,4.20
2019-04-27T07:35:42.659Z,4.00
2019-04-27T07:36:42.647Z,3.50
2019-04-27T07:37:42.646Z,4.70
2019-04-27T07:38:42.626Z,4.30
2019-04-27T07:39:42.613Z,3.90
2019-04-27T07:40:42.610Z,5.20
2019-04-27T07:41:42.629Z,4.00
2019-04-27T07:42:42.597Z,3.90
2019-04-27T07:43:42.599Z,3.90
2019-04-27T07:44:42.568Z,5.50
2019-04-27T07:45:42.597Z,4.10
2019-04-27T07:46:43.059Z,4.10
2019-04-27T07:47:42.541Z,3.90
2019-04-27T07:48:42.513Z,3.90
2019-04-27T07:49:42.536Z,3.90
2019-04-27T07:50:42.520Z,5.30
2019-04-27T07:51:42.517Z,5.70
2019-04-27T07:52:42.471Z,3.80
2019-04-27T07:53:42.477Z,4.00
2019-04-27T07:54:42.531Z,3.90
2019-04-27T07:55:42.479Z,4.20
2019-04-27T07:56:43.319Z,4.40
2019-04-27T07:57:42.585Z,4.80
2019-04-27T07:58:42.404Z,4.80
2019-04-27T07:59:42.565Z,4.00
2019-04-27T08:00:42.577Z,3.90
2019-04-27T08:01:42.390Z,3.90
2019-04-27T08:02:42.634Z,3.70
2019-04-27T08:03:42.434Z,4.00
2019-04-27T08:04:42.448Z,4.20
2019-04-27T08:05:42.368Z,3.70
2019-04-27T08:08:08.922Z,4.00
2019-04-27T08:09:09.204Z,4.70
2019-04-27T08:10:09.754Z,4.20
2019-04-27T08:11:08.833Z,5.00
2019-04-27T08:14:50.468Z,4.10
2019-04-27T08:15:49.804Z,5.40
2019-04-27T08:16:49.709Z,4.90
2019-04-27T08:17:49.652Z,5.10
2019-04-27T08:18:51.626Z,4.80
2019-04-27T08:19:49.796Z,5.50
2019-04-27T08:20:49.607Z,5.30
2019-04-27T08:21:50.018Z,5.60
2019-04-27T08:22:50.042Z,5.50
2019-04-27T08:23:49.636Z,5.60
2019-04-27T08:24:49.919Z,5.50
2019-04-27T08:25:49.601Z,6.00
2019-04-27T08:26:50.003Z,6.50
2019-04-27T08:27:49.523Z,6.00
2019-04-27T08:28:49.517Z,6.10
2019-04-27T08:29:49.675Z,6.60
2019-04-27T08:30:50.458Z,6.00
2019-04-27T08:31:49.528Z,7.00
2019-04-27T08:32:49.844Z,7.20
2019-04-27T08:33:49.461Z,6.20
2019-04-27T08:34:49.748Z,5.80
2019-04-27T08:35:49.445Z,5.30
2019-04-27T08:36:49.945Z,5.80
2019-04-27T08:37:50.419Z,6.00
2019-04-27T08:38:49.547Z,6.50
2019-04-27T08:39:51.049Z,6.90
2019-04-27T08:40:50.196Z,5.70
2019-04-27T08:41:50.589Z,5.90
2019-04-27T08:42:51.332Z,6.20
2019-04-27T08:43:49.482Z,6.80
2019-04-27T08:44:49.802Z,7.10
2019-04-27T08:45:49.348Z,7.20
2019-04-27T08:46:49.575Z,6.90
2019-04-27T08:47:49.973Z,7.10
2019-04-27T08:48:49.399Z,5.90
2019-04-27T08:49:49.446Z,6.80
2019-04-27T08:50:49.545Z,6.00
2019-04-27T08:51:58.577Z,6.40
2019-04-27T08:52:50.450Z,6.50
2019-04-27T08:53:50.138Z,7.00
2019-04-27T08:54:51.074Z,6.70
2019-04-27T08:55:50.346Z,7.20
2019-04-27T08:56:49.544Z,6.90
2019-04-27T08:57:50.415Z,6.70
2019-04-27T08:58:50.692Z,10.00
2019-04-27T08:59:51.130Z,8.90
2019-04-27T09:00:49.337Z,7.30
2019-04-27T09:03:07.234Z,16.90
2019-04-27T09:04:09.234Z,10.90
2019-04-27T09:05:17.120Z,8.10
2019-04-27T09:06:09.042Z,8.90
2019-04-27T09:07:08.792Z,6.40
2019-04-27T09:08:08.672Z,10.60
2019-04-27T09:09:06.791Z,7.90
2019-04-27T09:10:08.562Z,6.80
2019-04-27T09:11:06.715Z,6.70
2019-04-27T09:12:06.697Z,8.50
2019-04-27T09:13:08.723Z,10.70
2019-04-27T09:14:08.940Z,8.10
2019-04-27T09:15:06.747Z,12.40
2019-04-27T09:16:06.719Z,11.10
2019-04-27T09:17:06.717Z,5.90
2019-04-27T09:18:06.762Z,5.90
2019-04-27T09:19:08.826Z,10.20
2019-04-27T09:20:09.454Z,13.90
2019-04-27T09:21:08.780Z,7.10
2019-04-27T09:22:15.930Z,12.40
2019-04-27T09:23:10.722Z,8.30
2019-04-27T09:24:06.591Z,7.10
2019-04-27T09:27:03.741Z,17.10
2019-04-27T09:28:04.946Z,18.70
2019-04-27T09:29:04.377Z,7.70
2019-04-27T09:30:04.988Z,10.10
2019-04-27T09:31:03.662Z,6.20
2019-04-27T09:32:03.218Z,94.30
2019-04-27T09:33:03.284Z,18.30
2019-04-27T09:34:03.209Z,9.60
2019-04-27T09:35:03.187Z,10.70
2019-04-27T09:36:03.186Z,6.30
2019-04-27T09:37:03.167Z,5.20
2019-04-27T09:38:03.292Z,10.40
2019-04-27T09:39:03.181Z,9.20
2019-04-27T09:40:03.136Z,5.60
2019-04-27T09:41:03.128Z,5.80
2019-04-27T09:42:03.124Z,7.00
2019-04-27T09:43:03.151Z,6.50
2019-04-27T09:44:03.191Z,5.80
2019-04-27T09:45:04.064Z,11.50
2019-04-27T09:46:03.082Z,10.90
2019-04-27T09:47:03.156Z,10.30
2019-04-27T09:48:03.112Z,10.20
2019-04-27T09:49:03.077Z,8.80
2019-04-27T09:50:03.084Z,13.10
2019-04-27T09:51:03.069Z,9.00
2019-04-27T09:52:03.070Z,4.90
2019-04-27T09:53:02.985Z,4.60
2019-04-27T09:54:03.219Z,4.90
2019-04-27T09:55:03.021Z,4.30
2019-04-27T09:56:03.021Z,4.80
2019-04-27T09:57:02.960Z,5.00
2019-04-27T09:58:02.997Z,4.20
2019-04-27T09:59:02.946Z,4.20
2019-04-27T10:00:02.945Z,4.30
2019-04-27T10:01:02.924Z,4.40
2019-04-27T10:02:02.907Z,4.40
2019-04-27T10:03:02.893Z,5.00
2019-04-27T10:04:02.899Z,4.90
2019-04-27T10:05:02.871Z,5.00
2019-04-27T10:06:03.158Z,4.80
2019-04-27T10:07:02.849Z,3.90
2019-04-27T10:23:47.139Z,4.30
2019-04-27T10:30:25.854Z,3.60
2019-04-27T10:31:16.510Z,4.10
2019-04-27T10:32:16.185Z,4.20
2019-04-27T10:33:16.092Z,3.80
2019-04-27T10:34:15.408Z,3.70
2019-04-27T10:36:48.251Z,3.90
2019-04-27T10:37:46.951Z,4.00
2019-04-27T10:38:46.931Z,4.20
2019-04-27T10:39:47.802Z,4.30
2019-04-27T10:40:46.995Z,4.50
2019-04-27T10:41:48.323Z,4.40
2019-04-27T10:42:46.889Z,4.40
2019-04-27T10:43:46.883Z,4.20
2019-04-27T10:44:46.927Z,4.30
2019-04-27T10:45:48.955Z,4.00
2019-04-27T10:46:47.055Z,4.00
2019-04-27T10:47:49.239Z,4.00
2019-04-27T10:48:46.836Z,3.80
2019-04-27T10:49:48.471Z,4.00
2019-04-27T10:50:46.884Z,4.00
2019-04-27T10:52:59.488Z,4.10
2019-04-27T10:53:58.786Z,4.20
2019-04-27T10:54:58.758Z,4.50
2019-04-27T10:55:58.703Z,4.40
2019-04-27T10:56:58.669Z,4.10
2019-04-27T10:57:58.647Z,4.60
2019-04-27T10:58:58.659Z,4.80
2019-04-27T10:59:58.629Z,5.10
2019-04-27T11:00:58.804Z,4.70
2019-04-27T11:01:58.607Z,4.80
2019-04-27T11:02:58.622Z,6.10
2019-04-27T11:03:58.644Z,7.90
2019-04-27T11:04:58.749Z,5.20
2019-04-27T11:05:58.567Z,5.00
2019-04-27T11:06:58.569Z,5.70
2019-04-27T11:07:58.536Z,6.30
2019-04-27T11:08:58.533Z,5.70
2019-04-27T11:09:58.542Z,17.20
2019-04-27T11:10:58.546Z,11.50
2019-04-27T11:11:58.514Z,8.20
2019-04-27T11:12:58.523Z,6.80
2019-04-27T11:14:00.949Z,4.80
2019-04-27T11:14:58.463Z,4.30
2019-04-27T11:15:58.467Z,3.80
2019-04-27T11:16:58.462Z,3.70
2019-04-27T11:17:58.440Z,3.80
2019-04-27T11:18:58.838Z,10.50
2019-04-27T11:19:58.436Z,10.00
2019-04-27T11:20:58.430Z,11.00
2019-04-27T11:21:58.395Z,6.50
2019-04-27T11:23:07.005Z,4.20
2019-04-27T11:23:59.358Z,4.80
2019-04-27T11:24:58.402Z,4.90
2019-04-27T11:25:58.477Z,4.10
2019-04-27T11:26:58.416Z,4.30
2019-04-27T11:27:58.325Z,5.70
2019-04-27T11:28:58.325Z,4.10
2019-04-27T11:29:58.381Z,5.10
2019-04-27T11:32:16.096Z,7.00
2019-04-27T11:33:16.166Z,6.60
2019-04-27T11:34:15.835Z,5.10
2019-04-27T11:39:48.156Z,5.90
2019-04-27T11:44:32.897Z,2.50
2019-04-27T11:45:31.967Z,2.70
2019-04-27T12:02:28.808Z,3.10
2019-04-27T12:03:28.433Z,8.50
2019-04-27T12:04:28.331Z,8.50
2019-04-27T12:05:28.318Z,8.20
2019-04-27T12:06:28.407Z,8.10
2019-04-27T12:07:30.248Z,8.90
2019-04-27T12:09:38.906Z,7.20
2019-04-27T12:10:38.765Z,7.70
2019-04-27T12:11:38.696Z,7.60
2019-04-27T12:12:38.662Z,8.20
2019-04-27T12:13:38.649Z,7.80
2019-04-27T12:14:38.824Z,7.90
2019-04-27T12:15:38.642Z,7.20
2019-04-27T12:16:38.694Z,6.80
2019-04-27T12:17:38.647Z,7.30
2019-04-27T12:18:38.584Z,7.20
2019-04-27T12:19:38.588Z,7.50
2019-04-27T12:20:38.600Z,8.20
2019-04-27T12:24:58.441Z,6.60
2019-04-27T12:25:58.878Z,8.20
2019-04-27T12:26:57.851Z,8.20
2019-04-27T12:31:26.671Z,8.10
2019-04-27T12:33:46.102Z,25.90
2019-04-27T12:34:47.065Z,22.40
2019-04-27T12:35:49.886Z,11.20
2019-04-27T13:09:01.841Z,3.30
2019-04-27T13:10:01.676Z,5.00
2019-04-27T13:12:27.314Z,5.00
2019-04-27T13:13:26.716Z,5.60
2019-04-27T13:14:26.381Z,6.10
2019-04-27T13:15:26.492Z,6.30
2019-04-27T13:16:26.873Z,6.50
2019-04-27T13:17:29.272Z,5.80
2019-04-27T13:18:26.053Z,6.20
2019-04-27T13:22:31.817Z,6.30
2019-04-27T13:23:31.228Z,7.10
2019-04-27T13:24:31.293Z,6.60
2019-04-27T13:25:31.234Z,7.30
2019-04-27T13:26:31.587Z,7.30
2019-04-27T13:27:31.272Z,7.30
2019-04-27T13:28:31.190Z,7.70
2019-04-27T13:29:31.133Z,8.70
2019-04-27T13:30:31.280Z,8.60
2019-04-27T13:31:31.089Z,9.30
2019-04-27T13:32:31.113Z,7.90
2019-04-27T13:33:31.213Z,7.50
2019-04-27T13:34:31.169Z,7.40
2019-04-27T13:37:29.783Z,7.00
2019-04-27T13:38:29.345Z,6.10
2019-04-27T13:39:29.377Z,6.80
2019-04-27T13:40:38.832Z,7.20
2019-04-27T13:41:32.762Z,7.10
2019-04-27T13:42:31.148Z,6.80
2019-04-27T13:43:29.328Z,6.40
2019-04-27T13:44:29.334Z,6.10
2019-04-27T13:45:29.313Z,6.10
2019-04-27T13:46:29.324Z,6.10
2019-04-27T13:47:30.493Z,6.20
2019-04-27T13:48:29.241Z,6.20
2019-04-27T13:49:29.207Z,6.50
2019-04-27T13:50:29.385Z,7.90
2019-04-27T13:51:29.168Z,6.90
2019-04-27T13:52:29.967Z,6.50
2019-04-27T13:53:29.192Z,6.60
2019-04-27T13:54:29.392Z,5.80
2019-04-27T13:55:29.152Z,6.10
2019-04-27T13:56:29.133Z,5.50
2019-04-27T13:57:29.276Z,5.60
2019-04-27T13:58:29.098Z,5.90
2019-04-27T13:59:29.113Z,6.20
2019-04-27T14:00:29.102Z,5.70
2019-04-27T14:05:16.685Z,6.80
2019-04-27T14:06:16.025Z,8.30
2019-04-27T14:07:15.662Z,7.90
2019-04-27T14:10:21.097Z,5.00
2019-04-27T14:11:21.685Z,7.00
2019-04-27T14:12:21.640Z,9.50
2019-04-27T14:13:21.029Z,9.00
2019-04-27T14:14:21.047Z,7.60
2019-04-27T14:15:20.972Z,6.40
2019-04-27T14:16:21.004Z,4.90
2019-04-27T14:17:21.125Z,4.30
2019-04-27T14:18:21.197Z,3.90
2019-04-27T14:19:20.982Z,3.80
2019-04-27T14:20:21.165Z,3.20
2019-04-27T14:21:22.988Z,2.80
2019-04-27T14:22:20.971Z,2.30
2019-04-27T14:23:20.910Z,2.80
2019-04-27T14:24:27.734Z,2.80
2019-04-27T14:25:21.917Z,2.40
2019-04-27T14:26:21.673Z,3.20
2019-04-27T14:27:20.914Z,2.50
2019-04-27T14:28:20.906Z,2.20
2019-04-27T14:29:20.816Z,2.40
2019-04-27T14:30:20.915Z,2.40
2019-04-27T14:31:20.793Z,2.30
2019-04-27T14:32:20.789Z,2.20
2019-04-27T14:33:20.857Z,2.20
2019-04-27T14:34:20.779Z,2.70
2019-04-27T14:35:20.766Z,2.50
2019-04-27T14:36:20.754Z,2.60
2019-04-27T14:37:20.887Z,2.80
2019-04-27T14:38:21.571Z,3.00
2019-04-27T14:39:21.780Z,3.00
2019-04-27T14:40:20.749Z,2.80
2019-04-27T14:41:21.733Z,3.00
2019-04-27T14:42:20.752Z,3.00
2019-04-27T14:43:21.883Z,2.90
2019-04-27T14:44:21.636Z,2.50
2019-04-27T14:45:20.735Z,2.30
2019-04-27T14:46:21.157Z,2.50
2019-04-27T14:47:20.687Z,2.30
2019-04-27T14:48:20.785Z,2.30
2019-04-27T14:49:20.810Z,2.20
2019-04-27T14:50:20.753Z,2.50
2019-04-27T14:51:22.346Z,2.10
2019-04-27T14:52:30.651Z,2.40
2019-04-27T14:53:21.237Z,2.70
2019-04-27T14:54:20.559Z,2.40
2019-04-27T14:55:20.551Z,2.70
2019-04-27T14:57:44.734Z,2.40
2019-04-27T14:58:49.440Z,2.40
2019-04-27T14:59:44.121Z,2.30
2019-04-27T15:00:45.049Z,2.00
2019-04-27T15:11:53.587Z,2.20
2019-04-27T15:12:49.417Z,2.20